createdAt,value
2023-02-17T00:01:02.414Z,64.60
2023-02-17T00:03:29.792Z,63.90
2023-02-17T00:05:57.105Z,64.10
2023-02-17T00:08:24.559Z,64.20
2023-02-17T00:10:57.027Z,64.50
2023-02-17T00:13:24.508Z,64.40
2023-02-17T00:15:51.957Z,64.20
2023-02-17T00:18:19.441Z,64.10
2023-02-17T00:20:46.691Z,64.30
2023-02-17T00:23:14.018Z,64.40
2023-02-17T00:25:41.384Z,64.20
2023-02-17T00:28:08.699Z,64.50
2023-02-17T00:30:37.689Z,64.70
2023-02-17T00:33:05.384Z,65.20
2023-02-17T00:35:32.851Z,65.10
2023-02-17T00:38:00.206Z,65.30
2023-02-17T00:40:27.531Z,65.00
2023-02-17T00:42:54.948Z,65.10
2023-02-17T00:45:22.375Z,65.30
2023-02-17T00:47:49.673Z,65.20
2023-02-17T00:50:17.696Z,65.20
2023-02-17T00:52:45.005Z,65.70
2023-02-17T00:55:12.443Z,65.60
2023-02-17T00:57:39.745Z,65.90
2023-02-17T01:00:07.693Z,66.10
2023-02-17T01:02:35.147Z,66.30
2023-02-17T01:05:02.519Z,66.60
2023-02-17T01:07:29.840Z,66.60
2023-02-17T01:09:57.231Z,66.50
2023-02-17T01:12:24.560Z,66.30
2023-02-17T01:14:52.267Z,66.20
2023-02-17T01:17:19.570Z,66.70
2023-02-17T01:19:46.929Z,66.70
2023-02-17T01:22:14.270Z,66.60
2023-02-17T01:24:41.623Z,66.50
2023-02-17T01:27:08.913Z,66.10
2023-02-17T01:29:36.250Z,66.20
2023-02-17T01:32:04.293Z,66.70
2023-02-17T01:34:31.627Z,66.70
2023-02-17T01:36:59.820Z,66.00
2023-02-17T01:39:27.102Z,66.20
2023-02-17T01:41:54.419Z,65.90
2023-02-17T01:44:23.156Z,66.30
2023-02-17T01:46:54.889Z,65.90
2023-02-17T01:49:35.827Z,65.90
2023-02-17T01:52:08.238Z,66.00
2023-02-17T01:54:42.516Z,65.80
2023-02-17T01:57:09.824Z,66.10
2023-02-17T01:59:37.116Z,65.60
2023-02-17T02:02:04.900Z,65.60
2023-02-17T02:04:33.895Z,65.50
2023-02-17T02:07:03.785Z,65.50
2023-02-17T02:09:40.023Z,65.40
2023-02-17T02:12:25.044Z,65.50
2023-02-17T02:14:52.611Z,65.40
2023-02-17T02:17:37.895Z,65.20
2023-02-17T02:20:32.995Z,64.80
2023-02-17T02:23:19.394Z,64.80
2023-02-17T02:26:18.747Z,64.40
2023-02-17T02:29:07.628Z,63.80
2023-02-17T02:31:42.342Z,63.90
2023-02-17T02:34:12.672Z,63.80
2023-02-17T02:36:45.334Z,63.50
2023-02-17T02:39:16.176Z,63.60
2023-02-17T02:41:48.658Z,63.90
2023-02-17T02:44:17.878Z,64.20
2023-02-17T02:46:45.169Z,64.30
2023-02-17T02:49:12.512Z,64.10
2023-02-17T02:51:52.600Z,64.00
2023-02-17T02:54:35.419Z,64.80
2023-02-17T02:57:24.528Z,64.80
2023-02-17T03:00:16.808Z,64.90
2023-02-17T03:03:15.341Z,65.10
2023-02-17T03:05:45.756Z,65.20
2023-02-17T03:08:20.712Z,65.50
2023-02-17T03:10:49.459Z,65.30
2023-02-17T03:13:17.523Z,65.20
2023-02-17T03:15:45.033Z,65.40
2023-02-17T03:18:12.386Z,66.10
2023-02-17T03:20:48.996Z,66.60
2023-02-17T03:23:17.425Z,66.40
2023-02-17T03:25:45.472Z,66.70
2023-02-17T03:28:14.438Z,66.10
2023-02-17T03:30:42.308Z,65.90
2023-02-17T03:33:09.681Z,66.30
2023-02-17T03:35:36.965Z,66.90
2023-02-17T03:38:04.348Z,66.70
2023-02-17T03:40:31.605Z,65.80
2023-02-17T03:42:58.937Z,65.80
2023-02-17T03:45:26.304Z,65.90
2023-02-17T03:47:53.599Z,65.60
2023-02-17T03:50:20.943Z,65.50
2023-02-17T03:52:48.228Z,65.20
2023-02-17T03:55:15.578Z,65.20
2023-02-17T03:57:42.849Z,64.80
2023-02-17T04:00:10.561Z,64.90
2023-02-17T04:02:42.928Z,64.90
2023-02-17T04:05:11.456Z,64.80
2023-02-17T04:07:38.769Z,65.10
2023-02-17T04:10:09.281Z,64.80
2023-02-17T04:12:37.032Z,65.40
2023-02-17T04:15:04.549Z,65.10
2023-02-17T04:17:31.925Z,65.10
2023-02-17T04:19:59.222Z,65.00
2023-02-17T04:22:26.593Z,65.10
2023-02-17T04:24:53.888Z,65.30
2023-02-17T04:27:21.212Z,64.40
2023-02-17T04:29:48.540Z,64.80
2023-02-17T04:32:15.825Z,64.60
2023-02-17T04:34:43.121Z,63.90
2023-02-17T04:37:10.425Z,63.80
2023-02-17T04:39:37.772Z,63.70
2023-02-17T04:42:05.340Z,71.30
2023-02-17T04:44:32.693Z,86.90
2023-02-17T04:46:59.977Z,68.40
2023-02-17T04:49:27.290Z,75.60
2023-02-17T04:51:54.624Z,73.80
2023-02-17T04:54:22.841Z,80.40
2023-02-17T04:56:50.204Z,56.40
2023-02-17T04:59:17.494Z,66.90
2023-02-17T05:01:44.824Z,66.20
2023-02-17T05:04:12.259Z,58.30
2023-02-17T05:06:39.545Z,60.00
2023-02-17T05:09:06.846Z,59.50
2023-02-17T05:11:34.175Z,55.30
2023-02-17T05:14:01.478Z,56.50
2023-02-17T05:16:28.737Z,52.60
2023-02-17T05:18:56.013Z,53.30
2023-02-17T05:21:23.412Z,54.60
2023-02-17T05:23:50.737Z,55.20
2023-02-17T05:26:18.114Z,56.50
2023-02-17T05:28:45.438Z,57.20
2023-02-17T05:31:13.071Z,58.00
2023-02-17T05:33:40.382Z,58.50
2023-02-17T05:36:08.864Z,58.90
2023-02-17T05:38:36.368Z,59.40
2023-02-17T05:41:03.889Z,59.50
2023-02-17T05:43:31.271Z,59.70
2023-02-17T05:46:03.373Z,60.40
2023-02-17T05:48:30.829Z,60.70
2023-02-17T05:50:58.179Z,63.00
2023-02-17T05:53:25.517Z,65.10
2023-02-17T05:55:53.083Z,65.80
2023-02-17T05:58:20.449Z,66.80
2023-02-17T06:00:47.753Z,59.30
2023-02-17T06:03:15.315Z,59.10
2023-02-17T06:05:42.617Z,57.90
2023-02-17T06:08:09.913Z,57.20
2023-02-17T06:10:37.206Z,59.90
2023-02-17T06:13:04.528Z,59.80
2023-02-17T06:15:31.910Z,59.00
2023-02-17T06:17:59.277Z,57.30
2023-02-17T06:20:26.552Z,58.40
2023-02-17T06:22:53.869Z,57.60
2023-02-17T06:25:21.236Z,57.80
2023-02-17T06:27:48.612Z,56.80
2023-02-17T06:30:17.607Z,57.70
2023-02-17T06:32:45.047Z,57.80
2023-02-17T06:35:12.407Z,57.90
2023-02-17T06:37:39.728Z,59.00
2023-02-17T06:40:07.574Z,59.30
2023-02-17T06:42:34.863Z,61.30
2023-02-17T06:45:05.933Z,61.80
2023-02-17T06:47:34.061Z,62.00
2023-02-17T06:50:01.398Z,61.90
2023-02-17T06:52:28.752Z,61.90
2023-02-17T06:54:55.991Z,62.60
2023-02-17T06:57:23.356Z,62.20
2023-02-17T06:59:50.650Z,62.40
2023-02-17T07:02:18.147Z,61.60
2023-02-17T07:04:45.625Z,62.00
2023-02-17T07:07:13.010Z,61.40
2023-02-17T07:09:40.608Z,61.00
2023-02-17T07:12:08.071Z,61.60
2023-02-17T07:14:35.527Z,61.20
2023-02-17T07:17:02.947Z,61.10
2023-02-17T07:19:30.384Z,60.80
2023-02-17T07:21:57.853Z,60.80
2023-02-17T07:24:25.321Z,60.60
2023-02-17T07:26:55.679Z,60.90
2023-02-17T07:29:23.373Z,61.00
2023-02-17T07:31:50.836Z,61.60
2023-02-17T07:34:18.229Z,61.40
2023-02-17T07:36:45.514Z,62.20
2023-02-17T07:39:12.962Z,63.80
2023-02-17T07:41:40.331Z,65.70
2023-02-17T07:44:10.851Z,67.40
2023-02-17T07:46:42.144Z,68.70
2023-02-17T07:49:09.436Z,69.50
2023-02-17T07:51:36.740Z,70.10
2023-02-17T07:54:04.191Z,71.40
2023-02-17T07:56:33.770Z,71.40
2023-02-17T07:59:01.092Z,72.00
2023-02-17T08:01:28.415Z,72.30
2023-02-17T08:03:56.510Z,72.90
2023-02-17T08:06:24.429Z,74.00
2023-02-17T08:09:10.352Z,76.20
2023-02-17T08:11:56.092Z,75.80
2023-02-17T08:14:24.678Z,77.00
2023-02-17T08:16:52.307Z,76.90
2023-02-17T08:19:19.640Z,76.70
2023-02-17T08:21:46.982Z,77.40
2023-02-17T08:24:15.385Z,77.40
2023-02-17T08:26:42.838Z,79.40
2023-02-17T08:29:10.208Z,78.80
2023-02-17T08:31:37.962Z,78.20
2023-02-17T08:34:06.769Z,78.80
2023-02-17T08:36:34.288Z,78.70
2023-02-17T08:39:01.827Z,79.20
2023-02-17T08:41:34.509Z,80.00
2023-02-17T08:44:03.647Z,80.20
2023-02-17T08:46:31.008Z,80.20
2023-02-17T08:48:58.389Z,80.30
2023-02-17T08:51:26.247Z,79.60
2023-02-17T08:53:55.129Z,79.80
2023-02-17T08:56:23.186Z,81.00
2023-02-17T08:58:50.575Z,80.80
2023-02-17T09:01:21.047Z,81.40
2023-02-17T09:03:49.118Z,81.70
2023-02-17T09:06:16.814Z,80.70
2023-02-17T09:08:44.373Z,82.00
2023-02-17T09:11:12.675Z,85.20
2023-02-17T09:13:40.023Z,85.80
2023-02-17T09:16:07.927Z,89.00
2023-02-17T09:18:35.430Z,89.00
2023-02-17T09:21:10.301Z,89.10
2023-02-17T09:23:41.068Z,90.50
2023-02-17T09:26:10.145Z,91.10
2023-02-17T09:28:38.402Z,91.10
2023-02-17T09:31:13.962Z,91.20
2023-02-17T09:33:41.702Z,91.60
2023-02-17T09:36:10.770Z,92.20
2023-02-17T09:38:38.421Z,91.40
2023-02-17T09:41:16.216Z,92.50
2023-02-17T09:43:43.613Z,91.30
2023-02-17T09:46:21.007Z,91.40
2023-02-17T09:48:48.525Z,91.20
2023-02-17T09:51:54.313Z,91.40
2023-02-17T09:54:46.073Z,90.80
2023-02-17T09:57:15.775Z,91.20
2023-02-17T09:59:48.848Z,91.10
2023-02-17T10:02:33.982Z,90.80
2023-02-17T10:05:03.583Z,90.70
2023-02-17T10:07:34.471Z,90.10
2023-02-17T10:10:14.499Z,90.70
2023-02-17T10:12:45.494Z,90.20
2023-02-17T10:15:17.868Z,89.70
2023-02-17T10:18:02.290Z,89.30
2023-02-17T10:20:59.896Z,87.90
2023-02-17T10:23:28.099Z,85.20
2023-02-17T10:26:25.377Z,84.40
2023-02-17T10:28:56.443Z,84.10
2023-02-17T10:31:24.065Z,84.20
2023-02-17T10:33:58.034Z,85.10
2023-02-17T10:36:37.316Z,84.40
2023-02-17T10:39:20.677Z,84.70
2023-02-17T10:41:48.486Z,83.90
2023-02-17T10:44:18.210Z,83.20
2023-02-17T10:46:45.843Z,83.50
2023-02-17T10:49:29.666Z,84.50
2023-02-17T10:52:01.381Z,83.10
2023-02-17T10:54:39.704Z,82.80
2023-02-17T10:57:10.329Z,82.60
2023-02-17T10:59:42.869Z,81.50
2023-02-17T11:02:19.820Z,81.50
2023-02-17T11:04:49.377Z,79.40
2023-02-17T11:07:18.910Z,78.70
2023-02-17T11:09:50.530Z,79.10
2023-02-17T11:12:41.246Z,77.90
2023-02-17T11:15:19.374Z,76.70
2023-02-17T11:17:46.757Z,76.70
2023-02-17T11:20:14.357Z,76.70
2023-02-17T11:22:45.176Z,77.00
2023-02-17T11:25:26.627Z,76.00
2023-02-17T11:27:55.638Z,75.40
2023-02-17T11:30:23.506Z,75.90
2023-02-17T11:32:50.884Z,76.70
2023-02-17T11:35:27.410Z,76.50
2023-02-17T11:38:02.446Z,76.80
2023-02-17T11:40:31.812Z,76.10
2023-02-17T11:43:00.202Z,75.80
2023-02-17T11:45:33.104Z,75.00
2023-02-17T11:48:30.502Z,75.30
2023-02-17T11:51:18.595Z,75.00
2023-02-17T11:53:57.886Z,75.80
2023-02-17T11:56:37.098Z,75.80
2023-02-17T11:59:19.133Z,75.20
2023-02-17T12:01:49.268Z,75.60
2023-02-17T12:04:28.826Z,75.80
2023-02-17T12:06:59.015Z,76.30
2023-02-17T12:09:52.635Z,76.80
2023-02-17T12:12:45.923Z,76.30
2023-02-17T12:15:39.253Z,75.80
2023-02-17T12:18:18.717Z,75.80
2023-02-17T12:21:07.109Z,75.00
2023-02-17T12:24:06.988Z,75.10
2023-02-17T12:26:43.851Z,75.90
2023-02-17T12:29:25.865Z,76.70
2023-02-17T12:31:59.396Z,76.70
2023-02-17T12:34:59.512Z,77.80
2023-02-17T12:37:31.726Z,77.90
2023-02-17T12:40:41.612Z,78.00
2023-02-17T12:43:15.946Z,77.80
2023-02-17T12:45:44.323Z,78.00
2023-02-17T12:48:33.727Z,78.40
2023-02-17T12:51:21.217Z,78.30
2023-02-17T12:53:59.780Z,78.30
2023-02-17T12:56:31.220Z,78.50
2023-02-17T12:59:14.261Z,78.80
2023-02-17T13:01:53.352Z,79.00
2023-02-17T13:04:20.805Z,79.40
2023-02-17T13:07:08.372Z,79.80
2023-02-17T13:09:42.249Z,79.70
2023-02-17T13:12:29.979Z,80.10
2023-02-17T13:15:02.131Z,79.60
2023-02-17T13:17:33.593Z,80.10
2023-02-17T13:20:47.179Z,79.80
2023-02-17T13:23:25.543Z,80.30
2023-02-17T13:26:10.799Z,81.10
2023-02-17T13:28:38.956Z,81.00
2023-02-17T13:31:14.830Z,81.70
2023-02-17T13:33:45.373Z,82.50
2023-02-17T13:36:18.209Z,82.60
2023-02-17T13:39:08.383Z,83.00
2023-02-17T13:41:46.842Z,83.20
2023-02-17T13:44:24.683Z,83.40
2023-02-17T13:46:52.384Z,83.60
2023-02-17T13:49:24.362Z,83.90
2023-02-17T13:51:51.711Z,84.60
2023-02-17T13:54:23.373Z,85.00
2023-02-17T13:56:52.009Z,85.10
2023-02-17T13:59:25.148Z,85.40
2023-02-17T14:01:53.157Z,86.10
2023-02-17T14:04:28.193Z,86.00
2023-02-17T14:07:00.355Z,85.90
2023-02-17T14:09:32.529Z,86.10
2023-02-17T14:12:02.208Z,87.00
2023-02-17T14:14:34.242Z,86.80
2023-02-17T14:17:06.186Z,86.40
2023-02-17T14:19:47.312Z,86.40
2023-02-17T14:22:30.315Z,86.30
2023-02-17T14:25:05.224Z,86.50
2023-02-17T14:27:46.188Z,86.40
2023-02-17T14:30:15.324Z,86.80
2023-02-17T14:32:42.762Z,86.50
2023-02-17T14:35:13.050Z,86.40
2023-02-17T14:37:40.867Z,86.30
2023-02-17T14:40:23.302Z,86.60
2023-02-17T14:42:50.831Z,86.50
2023-02-17T14:45:18.925Z,86.80
2023-02-17T14:47:47.066Z,86.50
2023-02-17T14:50:16.126Z,86.20
2023-02-17T14:52:48.032Z,85.80
2023-02-17T14:55:36.564Z,86.00
2023-02-17T14:58:03.978Z,86.40
2023-02-17T15:00:31.535Z,87.10
2023-02-17T15:02:58.836Z,87.80
2023-02-17T15:05:26.219Z,87.50
2023-02-17T15:07:53.570Z,87.40
2023-02-17T15:10:25.030Z,87.10
2023-02-17T15:12:52.556Z,87.10
2023-02-17T15:15:20.172Z,87.20
2023-02-17T15:17:47.642Z,88.50
2023-02-17T15:20:15.579Z,87.70
2023-02-17T15:22:44.303Z,87.90
2023-02-17T15:25:16.570Z,89.50
2023-02-17T15:27:44.077Z,90.30
2023-02-17T15:30:13.127Z,90.60
2023-02-17T15:32:40.685Z,90.30
2023-02-17T15:35:18.370Z,89.80
2023-02-17T15:37:45.750Z,90.20
2023-02-17T15:40:25.913Z,90.00
2023-02-17T15:43:01.465Z,90.00
2023-02-17T15:45:28.867Z,90.30
2023-02-17T15:48:23.928Z,90.30
2023-02-17T15:50:51.813Z,90.70
2023-02-17T15:53:19.382Z,91.60
2023-02-17T15:55:46.937Z,91.30
2023-02-17T15:58:16.664Z,91.40
2023-02-17T16:00:46.101Z,91.60
2023-02-17T16:03:13.898Z,93.00
2023-02-17T16:05:41.423Z,92.30
2023-02-17T16:08:08.838Z,85.40
2023-02-17T16:10:36.313Z,81.80
2023-02-17T16:13:03.666Z,79.80
2023-02-17T16:15:31.478Z,80.40
2023-02-17T16:17:59.009Z,83.00
2023-02-17T16:20:34.845Z,84.60
2023-02-17T16:23:02.786Z,86.70
2023-02-17T16:25:30.176Z,88.00
2023-02-17T16:27:57.547Z,89.90
2023-02-17T16:30:25.616Z,90.30
2023-02-17T16:32:53.025Z,90.70
2023-02-17T16:35:24.948Z,91.20
2023-02-17T16:38:06.750Z,91.30
2023-02-17T16:40:35.366Z,91.50
2023-02-17T16:43:03.110Z,91.70
2023-02-17T16:45:31.611Z,92.00
2023-02-17T16:48:03.104Z,92.40
2023-02-17T16:50:32.413Z,92.70
2023-02-17T16:53:02.050Z,92.80
2023-02-17T16:55:30.789Z,93.10
2023-02-17T16:57:58.410Z,93.30
2023-02-17T17:00:27.863Z,93.50
2023-02-17T17:02:56.774Z,93.60
2023-02-17T17:05:24.686Z,93.90
2023-02-17T17:07:51.983Z,94.00
2023-02-17T17:10:21.649Z,94.10
2023-02-17T17:12:49.061Z,94.50
2023-02-17T17:15:17.802Z,94.60
2023-02-17T17:18:07.383Z,94.70
2023-02-17T17:20:36.768Z,94.90
2023-02-17T17:23:21.615Z,94.90
2023-02-17T17:25:51.196Z,94.90
2023-02-17T17:28:19.155Z,95.00
2023-02-17T17:30:46.521Z,95.10
2023-02-17T17:33:13.880Z,95.10
2023-02-17T17:35:41.249Z,95.10
2023-02-17T17:38:12.958Z,95.10
2023-02-17T17:40:53.235Z,94.90
2023-02-17T17:43:21.549Z,95.10
2023-02-17T17:45:49.532Z,95.10
2023-02-17T17:48:17.455Z,94.90
2023-02-17T17:50:46.324Z,95.00
2023-02-17T17:53:13.740Z,95.00
2023-02-17T17:55:41.030Z,95.20
2023-02-17T17:58:08.352Z,95.00
2023-02-17T18:00:35.641Z,95.50
2023-02-17T18:03:03.873Z,98.70
2023-02-17T18:05:31.231Z,99.90
2023-02-17T18:07:58.505Z,98.80
2023-02-17T18:10:25.901Z,97.90
2023-02-17T18:12:53.230Z,94.40
2023-02-17T18:15:20.577Z,94.80
2023-02-17T18:17:47.990Z,97.10
2023-02-17T18:20:15.567Z,91.30
2023-02-17T18:22:43.027Z,92.70
2023-02-17T18:25:11.646Z,92.20
2023-02-17T18:27:43.277Z,91.50
2023-02-17T18:30:11.919Z,94.50
2023-02-17T18:32:39.285Z,90.50
2023-02-17T18:35:06.971Z,90.20
2023-02-17T18:37:34.524Z,89.40
2023-02-17T18:40:02.440Z,86.50
2023-02-17T18:42:29.806Z,90.20
2023-02-17T18:44:57.228Z,91.40
2023-02-17T18:47:24.628Z,89.70
2023-02-17T18:49:52.152Z,92.90
2023-02-17T18:52:19.526Z,90.40
2023-02-17T18:54:46.907Z,90.10
2023-02-17T18:57:14.275Z,90.40
2023-02-17T18:59:41.601Z,89.30
2023-02-17T19:02:10.458Z,90.30
2023-02-17T19:04:37.984Z,91.00
2023-02-17T19:07:07.055Z,91.60
2023-02-17T19:09:38.413Z,92.30
2023-02-17T19:12:06.226Z,92.80
2023-02-17T19:14:33.610Z,93.30
2023-02-17T19:17:00.959Z,94.00
2023-02-17T19:19:30.286Z,94.10
2023-02-17T19:21:58.156Z,94.40
2023-02-17T19:24:25.508Z,94.80
2023-02-17T19:26:54.583Z,95.20
2023-02-17T19:29:22.930Z,95.30
2023-02-17T19:31:50.449Z,95.70
2023-02-17T19:34:19.983Z,95.90
2023-02-17T19:36:47.367Z,96.00
2023-02-17T19:39:14.725Z,96.30
2023-02-17T19:41:42.178Z,96.50
2023-02-17T19:44:10.660Z,96.70
2023-02-17T19:46:38.218Z,97.00
2023-02-17T19:49:05.650Z,97.10
2023-02-17T19:51:33.638Z,97.20
2023-02-17T19:54:01.532Z,97.40
2023-02-17T19:56:30.782Z,97.40
2023-02-17T19:58:58.152Z,97.70
2023-02-17T20:01:27.379Z,97.80
2023-02-17T20:03:55.430Z,97.90
2023-02-17T20:06:28.281Z,97.90
2023-02-17T20:09:03.608Z,98.00
2023-02-17T20:11:31.885Z,98.10
2023-02-17T20:13:59.717Z,98.20
2023-02-17T20:16:27.299Z,98.30
2023-02-17T20:18:57.628Z,98.40
2023-02-17T20:21:26.664Z,98.60
2023-02-17T20:23:54.886Z,98.70
2023-02-17T20:26:27.383Z,98.80
2023-02-17T20:28:54.995Z,99.00
2023-02-17T20:31:22.560Z,99.10
2023-02-17T20:33:50.223Z,99.20
2023-02-17T20:36:17.715Z,99.20
2023-02-17T20:38:45.287Z,99.00
2023-02-17T20:41:14.537Z,99.00
2023-02-17T20:43:41.792Z,99.00
2023-02-17T20:46:16.993Z,98.90
2023-02-17T20:48:44.320Z,98.90
2023-02-17T20:51:11.614Z,99.00
2023-02-17T20:53:39.050Z,98.80
2023-02-17T20:56:20.276Z,98.80
2023-02-17T20:58:47.682Z,98.70
2023-02-17T21:01:15.085Z,98.90
2023-02-17T21:03:42.488Z,99.00
2023-02-17T21:06:21.843Z,99.10
2023-02-17T21:08:56.868Z,99.20
2023-02-17T21:11:24.292Z,99.20
2023-02-17T21:13:51.758Z,99.40
2023-02-17T21:16:22.490Z,99.20
2023-02-17T21:18:49.798Z,99.20
2023-02-17T21:21:17.145Z,99.60
2023-02-17T21:23:44.553Z,99.00
2023-02-17T21:26:12.280Z,99.10
2023-02-17T21:28:39.961Z,99.10
2023-02-17T21:31:07.440Z,99.20
2023-02-17T21:33:41.654Z,99.20
2023-02-17T21:36:13.805Z,99.10
2023-02-17T21:38:41.109Z,99.20
2023-02-17T21:41:17.084Z,99.40
2023-02-17T21:44:03.358Z,99.40
2023-02-17T21:46:30.822Z,99.50
2023-02-17T21:48:58.825Z,99.60
2023-02-17T21:51:26.419Z,99.50
2023-02-17T21:53:53.951Z,99.50
2023-02-17T21:56:22.365Z,99.60
2023-02-17T21:58:51.122Z,99.40
2023-02-17T22:01:18.588Z,99.40
2023-02-17T22:03:45.979Z,99.40
2023-02-17T22:06:20.736Z,99.50
2023-02-17T22:08:48.072Z,99.60
2023-02-17T22:11:17.033Z,99.50
2023-02-17T22:13:44.422Z,99.50
2023-02-17T22:16:11.965Z,99.50
2023-02-17T22:18:39.356Z,99.70
2023-02-17T22:21:13.765Z,99.80
2023-02-17T22:23:41.109Z,99.90
2023-02-17T22:26:28.636Z,99.90
2023-02-17T22:28:56.228Z,99.90
2023-02-17T22:31:25.089Z,99.90
2023-02-17T22:33:52.572Z,99.90
2023-02-17T22:36:22.147Z,99.90
2023-02-17T22:38:50.009Z,99.90
2023-02-17T22:41:18.849Z,99.90
2023-02-17T22:43:46.523Z,99.90
2023-02-17T22:46:16.316Z,99.90
2023-02-17T22:48:44.587Z,99.90
2023-02-17T22:51:14.767Z,99.90
2023-02-17T22:53:42.154Z,99.90
2023-02-17T22:56:09.772Z,99.90
2023-02-17T22:58:37.260Z,99.90
2023-02-17T23:01:15.325Z,99.90
2023-02-17T23:03:42.851Z,99.90
2023-02-17T23:06:15.185Z,99.90
2023-02-17T23:08:43.270Z,99.90
2023-02-17T23:11:12.269Z,99.90
2023-02-17T23:13:39.726Z,99.90
2023-02-17T23:16:07.744Z,99.90
2023-02-17T23:18:35.857Z,99.90
2023-02-17T23:21:10.761Z,99.90
2023-02-17T23:23:38.138Z,99.90
2023-02-17T23:26:05.738Z,99.90
2023-02-17T23:28:33.427Z,99.90
2023-02-17T23:31:00.793Z,99.90
2023-02-17T23:33:28.136Z,99.90
2023-02-17T23:35:55.480Z,99.90
2023-02-17T23:38:22.763Z,99.90
2023-02-17T23:40:50.919Z,99.90
2023-02-17T23:43:18.614Z,99.90
2023-02-17T23:45:46.032Z,99.90
2023-02-17T23:48:13.410Z,99.90
2023-02-17T23:50:40.928Z,99.90
2023-02-17T23:53:08.357Z,99.90
2023-02-17T23:55:35.772Z,99.90
2023-02-17T23:58:03.151Z,99.90
